Time;durP1;ratioP1;P1;durP2;ratioP2;P2;SDS_P1;SDS_P2;PMS_P1;PMS_P2;Temp;Humidity;BMP_temperature;BMP_pressure;BME280_temperature;BME280_humidity;BME280_pressure;Samples;Min_cycle;Max_cycle;Signal;HPM_P1;HPM_P2
2022/10/14 00:02:11;;;;;;;38.50;25.10;;;12.20;99.90;;;;;;4984058;28;20723;-88
2022/10/14 00:04:36;;;;;;;36.13;22.95;;;12.00;99.90;;;;;;4980364;28;20049;-88
2022/10/14 00:07:02;;;;;;;34.63;22.55;;;12.00;99.90;;;;;;4986312;28;20076;-88
2022/10/14 00:09:28;;;;;;;34.70;22.70;;;11.90;99.90;;;;;;4988598;28;20054;-89
2022/10/14 00:11:53;;;;;;;36.55;23.20;;;11.00;99.90;;;;;;4970828;28;20138;-88
2022/10/14 00:14:20;;;;;;;31.60;21.77;;;11.70;99.90;;;;;;4973724;28;20101;-88
2022/10/14 00:16:47;;;;;;;30.35;20.95;;;11.90;99.90;;;;;;4977020;28;20046;-88
2022/10/14 00:19:13;;;;;;;34.58;22.65;;;12.00;99.90;;;;;;4987887;28;20092;-87
2022/10/14 00:21:42;;;;;;;41.75;24.48;;;11.50;99.90;;;;;;4980068;28;20051;-87
2022/10/14 00:24:10;;;;;;;38.45;24.25;;;11.50;99.90;;;;;;4969113;28;20043;-88
2022/10/14 00:26:38;;;;;;;37.60;22.35;;;12.50;99.90;;;;;;4972870;28;20109;-87
2022/10/14 00:29:11;;;;;;;33.40;19.80;;;11.30;99.90;;;;;;4973789;28;20521;-88
2022/10/14 00:31:36;;;;;;;47.17;23.77;;;11.20;99.90;;;;;;4987687;28;20046;-87
2022/10/14 00:34:02;;;;;;;40.42;22.52;;;11.20;99.90;;;;;;4982008;28;20038;-87
2022/10/14 00:36:28;;;;;;;34.25;17.83;;;11.10;99.90;;;;;;4987639;28;20078;-87
2022/10/14 00:38:54;;;;;;;28.27;18.95;;;11.10;99.90;;;;;;4988309;28;20042;-87
2022/10/14 00:41:28;;;;;;;33.05;20.55;;;11.00;99.90;;;;;;4974410;28;20039;-88
2022/10/14 00:44:14;;;;;;;31.10;19.27;;;11.00;99.90;;;;;;4986264;28;20044;-88
2022/10/14 00:46:45;;;;;;;28.80;16.27;;;11.00;99.90;;;;;;4939650;28;20058;-87
2022/10/14 00:49:23;;;;;;;29.23;19.02;;;11.00;99.90;;;;;;4972620;28;20038;-88
2022/10/14 00:51:59;;;;;;;61.42;22.25;;;11.00;99.90;;;;;;4987348;28;20057;-87
2022/10/14 00:54:31;;;;;;;110.63;26.15;;;11.00;99.90;;;;;;4987873;28;20043;-89
2022/10/14 00:56:56;;;;;;;246.10;31.45;;;11.60;99.90;;;;;;4972772;28;20074;-87
2022/10/14 00:59:22;;;;;;;216.57;29.45;;;10.90;99.90;;;;;;4985782;28;20084;-87
2022/10/14 01:01:48;;;;;;;219.27;31.73;;;11.00;99.90;;;;;;4979278;28;20062;-88
2022/10/14 01:04:13;;;;;;;273.77;34.83;;;11.10;99.90;;;;;;4985543;28;20050;-86
2022/10/14 01:06:58;;;;;;;259.05;31.23;;;11.90;99.90;;;;;;4982740;28;20043;-88
2022/10/14 01:09:30;;;;;;;166.25;23.65;;;11.10;99.90;;;;;;4968672;28;20038;-88
2022/10/14 01:11:55;;;;;;;158.40;23.67;;;11.10;99.90;;;;;;4957402;28;20061;-87
2022/10/14 01:14:36;;;;;;;115.32;20.08;;;11.10;99.90;;;;;;4988031;28;20050;-87
2022/10/14 01:17:25;;;;;;;127.55;25.30;;;11.00;99.90;;;;;;4987130;28;20519;-88
2022/10/14 01:20:03;;;;;;;165.13;25.85;;;11.00;99.90;;;;;;4980877;28;20062;-88
2022/10/14 01:22:42;;;;;;;95.63;20.23;;;11.00;99.90;;;;;;4967266;28;20050;-88
2022/10/14 01:25:19;;;;;;;122.03;22.42;;;11.00;99.90;;;;;;4970876;28;20050;-87
2022/10/14 01:27:54;;;;;;;96.35;18.63;;;11.00;99.90;;;;;;4974475;28;20133;-87
2022/10/14 01:30:29;;;;;;;109.72;21.00;;;11.00;99.90;;;;;;4987193;28;20481;-87
2022/10/14 01:33:04;;;;;;;72.25;16.80;;;11.00;99.90;;;;;;4967827;28;20081;-87
2022/10/14 01:35:51;;;;;;;93.07;16.48;;;11.00;99.90;;;;;;4980658;28;20046;-88
2022/10/14 01:38:31;;;;;;;134.85;20.42;;;11.00;99.90;;;;;;4981929;28;20416;-88
2022/10/14 01:41:09;;;;;;;214.20;26.08;;;11.00;99.90;;;;;;4987760;28;20054;-88
2022/10/14 01:43:36;;;;;;;95.28;16.20;;;11.00;99.90;;;;;;4970151;28;20046;-88
2022/10/14 01:46:05;;;;;;;91.38;18.63;;;11.00;99.90;;;;;;4990699;28;20038;-88
2022/10/14 01:48:35;;;;;;;124.00;21.02;;;11.00;99.90;;;;;;4991671;28;20139;-88
2022/10/14 01:51:10;;;;;;;220.65;25.48;;;11.00;99.90;;;;;;4990663;28;20473;-88
2022/10/14 01:53:40;;;;;;;199.88;24.02;;;11.00;99.90;;;;;;4986182;28;20047;-88
2022/10/14 01:56:07;;;;;;;165.13;21.08;;;11.00;99.90;;;;;;4979083;28;20049;-89
2022/10/14 01:58:38;;;;;;;161.35;18.67;;;10.90;99.90;;;;;;4973727;28;20063;-86
2022/10/14 02:01:07;;;;;;;184.02;19.95;;;12.20;99.90;;;;;;4985005;28;20785;-86
2022/10/14 02:03:51;;;;;;;136.20;16.38;;;11.00;99.90;;;;;;4972364;28;20412;-87
2022/10/14 02:06:31;;;;;;;130.40;17.45;;;10.90;99.90;;;;;;4979777;28;20560;-87
2022/10/14 02:09:05;;;;;;;192.30;20.30;;;11.00;99.90;;;;;;4989960;28;20519;-87
2022/10/14 02:12:01;;;;;;;136.57;16.98;;;12.10;99.90;;;;;;4973006;28;20684;-87
2022/10/14 02:14:46;;;;;;;129.15;17.98;;;11.00;99.90;;;;;;4937743;28;20143;-86
2022/10/14 02:17:20;;;;;;;67.45;13.27;;;11.90;99.90;;;;;;4985940;28;20038;-87
2022/10/14 02:20:12;;;;;;;110.40;16.42;;;11.00;99.90;;;;;;4990707;28;20054;-88
2022/10/14 02:22:42;;;;;;;109.80;17.40;;;11.10;99.90;;;;;;4990103;28;20133;-88
2022/10/14 02:25:18;;;;;;;119.25;18.48;;;10.90;99.90;;;;;;4973195;28;20117;-88
2022/10/14 02:27:47;;;;;;;223.23;21.40;;;11.00;99.90;;;;;;4987694;28;20046;-87
2022/10/14 02:30:14;;;;;;;45.63;12.52;;;10.90;99.90;;;;;;4972049;28;20560;-88
2022/10/14 02:32:41;;;;;;;119.18;15.73;;;10.90;99.90;;;;;;4986555;28;20508;-87
2022/10/14 02:35:09;;;;;;;76.50;13.55;;;10.90;99.90;;;;;;4990086;28;20046;-88
2022/10/14 02:37:36;;;;;;;108.03;15.43;;;10.90;99.90;;;;;;4986273;28;20038;-88
2022/10/14 02:40:16;;;;;;;68.72;13.63;;;10.80;99.90;;;;;;4989050;28;20128;-86
2022/10/14 02:42:42;;;;;;;148.30;18.88;;;10.80;99.90;;;;;;4986079;28;20431;-87
2022/10/14 02:45:09;;;;;;;97.43;15.57;;;11.80;99.90;;;;;;4970809;28;20047;-88
2022/10/14 02:47:35;;;;;;;119.03;16.17;;;10.90;99.90;;;;;;4979745;28;20046;-88
2022/10/14 02:50:00;;;;;;;145.10;18.35;;;11.50;99.90;;;;;;4971252;28;20067;-88
2022/10/14 02:52:26;;;;;;;110.28;16.73;;;10.80;99.90;;;;;;4984701;28;20169;-88
2022/10/14 02:54:52;;;;;;;88.05;14.90;;;9.80;99.90;;;;;;4989878;28;20045;-88
2022/10/14 02:57:17;;;;;;;130.77;18.75;;;10.00;99.90;;;;;;4980507;28;20089;-87
2022/10/14 02:59:43;;;;;;;137.60;20.02;;;10.90;99.90;;;;;;4954456;28;20059;-87
2022/10/14 03:02:08;;;;;;;92.68;15.98;;;10.30;99.90;;;;;;4982820;28;20051;-86
2022/10/14 03:04:35;;;;;;;144.35;18.25;;;10.80;99.90;;;;;;4972098;28;20050;-86
2022/10/14 03:07:00;;;;;;;135.32;19.85;;;10.90;99.90;;;;;;4962282;28;20496;-87
2022/10/14 03:09:26;;;;;;;128.07;17.27;;;10.80;99.90;;;;;;4989011;28;20056;-87
2022/10/14 03:11:52;;;;;;;123.97;16.58;;;11.60;99.90;;;;;;4988581;28;20078;-87
2022/10/14 03:14:17;;;;;;;89.47;16.83;;;10.20;99.90;;;;;;4989212;28;20085;-87
2022/10/14 03:16:43;;;;;;;111.93;17.13;;;11.60;99.90;;;;;;4989230;28;20042;-87
2022/10/14 03:19:09;;;;;;;133.38;18.95;;;10.80;99.90;;;;;;4972465;28;20754;-87
2022/10/14 03:21:34;;;;;;;95.70;15.23;;;10.80;99.90;;;;;;4988377;28;20057;-88
2022/10/14 03:24:00;;;;;;;108.80;15.68;;;10.80;99.90;;;;;;4955763;28;20046;-86
2022/10/14 03:26:26;;;;;;;89.20;15.30;;;10.80;99.90;;;;;;4977457;28;20038;-87
2022/10/14 03:28:52;;;;;;;90.60;15.40;;;10.80;99.90;;;;;;4989555;28;20129;-87
2022/10/14 03:31:18;;;;;;;50.85;13.45;;;10.80;99.90;;;;;;4987484;28;20125;-87
2022/10/14 03:33:43;;;;;;;110.47;18.40;;;10.80;99.90;;;;;;4986545;28;20054;-86
2022/10/14 03:36:11;;;;;;;98.78;18.65;;;10.80;99.90;;;;;;4988926;28;20053;-86
2022/10/14 03:38:36;;;;;;;92.97;17.27;;;10.80;99.90;;;;;;4988572;28;20523;-86
2022/10/14 03:41:02;;;;;;;109.10;18.95;;;10.80;99.90;;;;;;4986924;28;20047;-86
2022/10/14 03:43:28;;;;;;;110.88;19.83;;;10.80;99.90;;;;;;4972579;28;20042;-87
2022/10/14 03:45:54;;;;;;;80.90;19.15;;;10.80;99.90;;;;;;4988061;28;20472;-86
2022/10/14 03:48:19;;;;;;;102.15;20.70;;;10.90;99.90;;;;;;4988030;28;20074;-86
2022/10/14 03:50:46;;;;;;;70.97;19.73;;;10.90;99.90;;;;;;4987248;28;20043;-87
2022/10/14 03:53:12;;;;;;;86.20;19.90;;;10.90;99.90;;;;;;4970493;28;20404;-86
2022/10/14 03:55:37;;;;;;;71.57;17.90;;;10.90;99.90;;;;;;4979491;28;20088;-86
2022/10/14 03:58:04;;;;;;;67.00;18.10;;;10.90;99.90;;;;;;4987991;28;20196;-86
2022/10/14 04:00:30;;;;;;;62.42;17.58;;;10.90;99.90;;;;;;4987603;28;20050;-87
2022/10/14 04:02:55;;;;;;;66.28;17.92;;;10.90;99.90;;;;;;4985567;28;20100;-87
2022/10/14 04:05:21;;;;;;;77.80;18.75;;;10.80;99.90;;;;;;4974477;28;20508;-86
2022/10/14 04:07:47;;;;;;;72.07;18.65;;;11.90;99.90;;;;;;4971323;28;20058;-87
2022/10/14 04:10:12;;;;;;;71.90;17.95;;;10.90;99.90;;;;;;4988577;28;20046;-86
2022/10/14 04:12:39;;;;;;;80.43;19.42;;;10.90;99.90;;;;;;4981222;28;20046;-87
2022/10/14 04:15:06;;;;;;;112.47;21.73;;;10.90;99.90;;;;;;4953242;28;20042;-87
2022/10/14 04:17:32;;;;;;;91.53;21.42;;;10.90;99.90;;;;;;4970156;28;20049;-86
2022/10/14 04:19:58;;;;;;;82.38;20.88;;;10.90;99.90;;;;;;4978768;28;20046;-87
2022/10/14 04:22:23;;;;;;;67.03;17.55;;;10.90;99.90;;;;;;4970645;28;20121;-87
2022/10/14 04:24:49;;;;;;;84.90;19.90;;;10.90;99.90;;;;;;4974992;28;20061;-88
2022/10/14 04:27:15;;;;;;;99.90;22.35;;;12.10;99.90;;;;;;4968217;28;20046;-88
2022/10/14 04:29:41;;;;;;;88.80;22.15;;;10.90;99.90;;;;;;4976985;28;20054;-88
2022/10/14 04:32:07;;;;;;;61.70;18.90;;;11.00;99.90;;;;;;4963767;28;20046;-88
2022/10/14 04:34:33;;;;;;;115.75;23.00;;;10.90;99.90;;;;;;4967975;28;20042;-87
2022/10/14 04:36:58;;;;;;;92.60;22.77;;;11.00;99.90;;;;;;4968929;28;20035;-89
2022/10/14 04:39:24;;;;;;;78.55;21.17;;;11.00;99.90;;;;;;4969925;28;20057;-86
2022/10/14 04:41:49;;;;;;;51.20;17.25;;;11.00;99.90;;;;;;4970254;28;20035;-88
2022/10/14 04:44:15;;;;;;;69.38;19.13;;;10.40;99.90;;;;;;4988897;28;20038;-88
2022/10/14 04:46:41;;;;;;;77.75;21.77;;;11.00;99.90;;;;;;4987816;28;20049;-87
2022/10/14 04:49:07;;;;;;;58.65;19.27;;;11.00;99.90;;;;;;4987010;28;20042;-89
2022/10/14 04:51:33;;;;;;;83.97;20.20;;;11.70;99.90;;;;;;4986298;28;20046;-88
2022/10/14 04:53:59;;;;;;;130.55;26.42;;;10.90;99.90;;;;;;4987916;28;20054;-87
2022/10/14 04:56:24;;;;;;;105.28;22.95;;;11.00;99.90;;;;;;4988068;28;20603;-88
2022/10/14 04:58:50;;;;;;;124.53;25.90;;;11.00;99.90;;;;;;4982399;28;20070;-87
2022/10/14 05:01:17;;;;;;;75.60;19.25;;;11.10;99.90;;;;;;4977372;28;20164;-88
2022/10/14 05:03:43;;;;;;;84.75;21.90;;;11.10;99.90;;;;;;4986366;28;20117;-88
2022/10/14 05:06:09;;;;;;;100.63;22.27;;;11.10;99.90;;;;;;4987899;28;20050;-88
2022/10/14 05:08:35;;;;;;;96.70;22.05;;;11.10;99.90;;;;;;4972023;28;20046;-89
2022/10/14 05:11:01;;;;;;;53.28;18.77;;;11.00;99.90;;;;;;4985683;28;20057;-87
2022/10/14 05:13:28;;;;;;;64.03;19.60;;;11.00;99.90;;;;;;4975606;28;20047;-88
2022/10/14 05:15:53;;;;;;;116.55;23.58;;;11.00;99.90;;;;;;4974431;28;20088;-88
2022/10/14 05:18:19;;;;;;;103.03;23.25;;;11.00;99.90;;;;;;4989652;28;20451;-89
2022/10/14 05:20:45;;;;;;;114.05;24.48;;;10.40;99.90;;;;;;4982399;28;20055;-89
2022/10/14 05:23:13;;;;;;;98.05;23.85;;;11.00;99.90;;;;;;4971196;28;20054;-89
2022/10/14 05:25:39;;;;;;;91.85;23.70;;;11.00;99.90;;;;;;4972827;28;20524;-89
2022/10/14 05:28:05;;;;;;;96.85;22.63;;;11.00;99.90;;;;;;4987847;28;20128;-89
2022/10/14 05:30:31;;;;;;;58.83;17.75;;;10.30;99.90;;;;;;4991155;28;20453;-89
2022/10/14 05:32:56;;;;;;;79.05;21.23;;;10.90;99.90;;;;;;4989083;28;20043;-87
2022/10/14 05:35:22;;;;;;;63.13;19.75;;;10.90;99.90;;;;;;4989896;28;20042;-88
2022/10/14 05:37:52;;;;;;;71.80;21.70;;;11.70;99.90;;;;;;4992121;28;20551;-86
2022/10/14 05:40:18;;;;;;;65.20;19.30;;;11.00;99.90;;;;;;4988513;28;20057;-88
2022/10/14 05:42:44;;;;;;;65.45;20.90;;;11.00;99.90;;;;;;4988297;28;20104;-88
2022/10/14 05:45:10;;;;;;;76.35;22.08;;;11.00;99.90;;;;;;4988155;28;20090;-86
2022/10/14 05:47:35;;;;;;;59.13;21.73;;;11.00;99.90;;;;;;4981012;28;20051;-87
2022/10/14 05:50:03;;;;;;;66.60;22.10;;;11.00;99.90;;;;;;4984234;28;20061;-88
2022/10/14 05:52:31;;;;;;;50.63;19.73;;;11.00;99.90;;;;;;4976011;28;20460;-87
2022/10/14 05:54:57;;;;;;;70.07;22.73;;;11.00;99.90;;;;;;4991358;28;20070;-88
2022/10/14 05:57:23;;;;;;;73.53;24.60;;;11.00;99.90;;;;;;4991347;28;20428;-88
2022/10/14 05:59:48;;;;;;;73.88;24.13;;;11.00;99.90;;;;;;4990898;28;20062;-87
2022/10/14 06:02:14;;;;;;;76.88;25.15;;;11.00;99.90;;;;;;4972934;28;20042;-89
2022/10/14 06:04:41;;;;;;;88.28;27.13;;;11.00;99.90;;;;;;4962598;28;20039;-89
2022/10/14 06:07:09;;;;;;;79.40;26.83;;;11.00;99.90;;;;;;4990754;28;20692;-89
2022/10/14 06:09:35;;;;;;;73.38;27.70;;;11.00;99.90;;;;;;4991104;28;20046;-89
2022/10/14 06:12:01;;;;;;;74.32;26.77;;;11.00;99.90;;;;;;4980984;28;20049;-88
2022/10/14 06:14:27;;;;;;;77.78;27.17;;;11.00;99.90;;;;;;4971386;28;20039;-89
2022/10/14 06:16:52;;;;;;;79.57;28.45;;;11.30;99.90;;;;;;4978534;28;20046;-89
2022/10/14 06:19:18;;;;;;;80.50;28.40;;;11.00;99.90;;;;;;4974776;28;20038;-87
2022/10/14 06:21:44;;;;;;;61.55;25.08;;;11.10;99.90;;;;;;4984023;28;20046;-88
2022/10/14 06:24:10;;;;;;;69.68;27.42;;;11.10;99.90;;;;;;4991088;28;20038;-88
2022/10/14 06:26:36;;;;;;;67.28;26.77;;;11.10;99.90;;;;;;4990559;28;20050;-89
2022/10/14 06:29:01;;;;;;;61.65;26.00;;;11.10;99.90;;;;;;4981388;28;20054;-88
2022/10/14 06:31:27;;;;;;;55.97;26.00;;;11.10;99.90;;;;;;4972323;28;20081;-89
2022/10/14 06:33:52;;;;;;;60.95;24.83;;;11.10;99.90;;;;;;4956289;28;20484;-88
2022/10/14 06:36:18;;;;;;;52.03;23.60;;;11.20;99.90;;;;;;4955661;28;20093;-87
2022/10/14 06:38:44;;;;;;;50.17;22.80;;;11.20;99.90;;;;;;4975139;28;20051;-88
2022/10/14 06:41:09;;;;;;;53.28;23.13;;;11.20;99.90;;;;;;4955917;28;20054;-89
2022/10/14 06:43:35;;;;;;;48.60;22.17;;;11.20;99.90;;;;;;4971931;28;20042;-87
2022/10/14 06:46:02;;;;;;;48.42;22.10;;;11.20;99.90;;;;;;4990776;28;20088;-85
2022/10/14 06:48:28;;;;;;;52.25;22.48;;;11.30;99.90;;;;;;4989776;28;20050;-89
2022/10/14 06:50:53;;;;;;;44.17;21.58;;;11.30;99.90;;;;;;4991128;28;20050;-87
2022/10/14 06:53:19;;;;;;;51.40;22.75;;;11.40;99.90;;;;;;4991154;28;20069;-91
2022/10/14 06:55:45;;;;;;;47.55;20.88;;;11.40;99.90;;;;;;4991005;28;20788;-90
2022/10/14 06:58:11;;;;;;;38.78;19.60;;;12.20;99.90;;;;;;4985038;28;20051;-89
2022/10/14 07:00:36;;;;;;;44.17;20.58;;;11.50;99.90;;;;;;4978003;28;20058;-88
2022/10/14 07:03:02;;;;;;;40.20;20.30;;;11.50;99.90;;;;;;4987365;28;20047;-88
2022/10/14 07:05:28;;;;;;;40.08;19.42;;;11.50;99.90;;;;;;4970862;28;20055;-88
2022/10/14 07:07:56;;;;;;;43.42;20.30;;;11.60;99.90;;;;;;4970203;28;20043;-88
2022/10/14 07:10:22;;;;;;;40.30;19.05;;;11.60;99.90;;;;;;4953664;28;20047;-88
2022/10/14 07:12:47;;;;;;;52.53;21.10;;;11.60;99.90;;;;;;4966728;28;20073;-87
2022/10/14 07:15:13;;;;;;;38.47;20.23;;;11.70;99.90;;;;;;4989912;28;20042;-88
2022/10/14 07:17:39;;;;;;;46.00;20.27;;;11.60;99.90;;;;;;4976762;28;20093;-88
2022/10/14 07:20:05;;;;;;;36.90;18.00;;;11.60;99.90;;;;;;4969727;28;20401;-88
2022/10/14 07:22:31;;;;;;;42.72;20.38;;;11.30;99.90;;;;;;4970319;28;20053;-89
2022/10/14 07:24:56;;;;;;;37.97;19.98;;;11.70;99.90;;;;;;4954226;28;20039;-89
2022/10/14 07:27:22;;;;;;;37.70;18.42;;;11.70;99.90;;;;;;4969108;28;20134;-89
2022/10/14 07:29:47;;;;;;;36.25;18.52;;;11.70;99.90;;;;;;4971395;28;20051;-89
2022/10/14 07:32:13;;;;;;;32.80;18.98;;;11.70;99.90;;;;;;4965086;28;20085;-88
2022/10/14 07:34:38;;;;;;;37.22;19.50;;;11.70;99.90;;;;;;4989319;28;20136;-88
2022/10/14 07:37:05;;;;;;;33.72;19.83;;;11.80;99.90;;;;;;4988766;28;20403;-89
2022/10/14 07:39:30;;;;;;;38.95;20.70;;;11.80;99.90;;;;;;4988097;28;20065;-88
2022/10/14 07:41:56;;;;;;;39.70;20.33;;;11.80;99.90;;;;;;4989351;28;20043;-89
2022/10/14 07:44:22;;;;;;;36.60;18.55;;;11.80;99.90;;;;;;4990322;28;20556;-90
2022/10/14 07:46:47;;;;;;;37.03;20.02;;;11.80;99.90;;;;;;4987864;28;20454;-89
2022/10/14 07:49:16;;;;;;;36.42;19.85;;;11.80;99.90;;;;;;4988975;28;20420;-89
2022/10/14 07:51:43;;;;;;;34.80;18.52;;;11.80;99.90;;;;;;4988799;28;20496;-87
2022/10/14 07:54:13;;;;;;;34.40;19.52;;;11.80;99.90;;;;;;4989904;28;20054;-87
2022/10/14 07:56:41;;;;;;;34.33;19.80;;;11.80;99.90;;;;;;4972302;28;20054;-88
2022/10/14 07:59:07;;;;;;;35.13;19.45;;;11.90;99.90;;;;;;4988696;28;20069;-88
2022/10/14 08:01:33;;;;;;;36.10;19.05;;;12.00;99.90;;;;;;4988108;28;20405;-88
2022/10/14 08:03:58;;;;;;;32.35;19.40;;;12.00;99.90;;;;;;4986225;28;20476;-88
2022/10/14 08:06:24;;;;;;;34.22;18.70;;;12.00;99.90;;;;;;4988858;28;20472;-88
2022/10/14 08:08:50;;;;;;;37.70;19.85;;;12.10;99.90;;;;;;4988412;28;20050;-88
2022/10/14 08:11:22;;;;;;;32.60;19.08;;;12.20;99.90;;;;;;4989484;28;20579;-88
2022/10/14 08:13:48;;;;;;;32.63;19.35;;;12.20;99.90;;;;;;4972529;28;20558;-87
2022/10/14 08:16:17;;;;;;;33.83;18.58;;;12.30;99.90;;;;;;4988463;28;20084;-87
2022/10/14 08:18:43;;;;;;;36.35;20.85;;;12.90;99.90;;;;;;4983008;28;20146;-88
2022/10/14 08:21:09;;;;;;;34.90;19.85;;;12.30;99.90;;;;;;4969730;28;20089;-88
2022/10/14 08:23:35;;;;;;;34.60;19.45;;;12.30;99.90;;;;;;4970509;28;20483;-88
2022/10/14 08:26:01;;;;;;;33.90;19.40;;;12.30;99.90;;;;;;4970472;28;20042;-87
2022/10/14 08:28:26;;;;;;;38.10;21.25;;;12.40;99.90;;;;;;4969622;28;20436;-87
2022/10/14 08:30:52;;;;;;;38.35;21.27;;;12.40;99.90;;;;;;4968188;28;20078;-86
2022/10/14 08:33:18;;;;;;;35.60;21.35;;;12.40;99.90;;;;;;4971262;28;20065;-87
2022/10/14 08:35:44;;;;;;;38.63;21.60;;;12.40;99.90;;;;;;4984488;28;20070;-88
2022/10/14 08:38:10;;;;;;;38.08;21.63;;;12.40;99.90;;;;;;4968562;28;20046;-87
2022/10/14 08:40:55;;;;;;;38.80;21.95;;;12.50;99.90;;;;;;4970296;28;20076;-87
2022/10/14 08:43:29;;;;;;;44.33;22.63;;;12.40;99.90;;;;;;4969437;28;20135;-89
2022/10/14 08:46:04;;;;;;;39.90;21.17;;;12.40;99.90;;;;;;4969957;28;20109;-88
2022/10/14 08:48:32;;;;;;;40.47;22.33;;;12.40;99.90;;;;;;4968319;28;20047;-87
2022/10/14 08:51:13;;;;;;;38.03;21.50;;;12.40;99.90;;;;;;4969486;28;20485;-91
2022/10/14 08:53:47;;;;;;;40.90;23.13;;;12.40;99.90;;;;;;4969969;28;20498;-89
2022/10/14 08:56:14;;;;;;;37.33;20.05;;;12.50;99.90;;;;;;4974127;28;20093;-89
2022/10/14 08:58:46;;;;;;;35.63;21.08;;;12.40;99.90;;;;;;4982548;28;20069;-90
2022/10/14 09:01:27;;;;;;;38.88;20.88;;;12.50;99.90;;;;;;4980752;28;20054;-89
2022/10/14 09:03:57;;;;;;;39.67;22.90;;;12.50;99.90;;;;;;4979294;28;20046;-88
2022/10/14 09:06:32;;;;;;;39.90;21.88;;;13.00;99.90;;;;;;4983799;28;20416;-88
2022/10/14 09:09:19;;;;;;;39.15;21.58;;;12.60;99.90;;;;;;4985981;28;20069;-87
2022/10/14 09:11:50;;;;;;;42.55;22.77;;;12.60;99.90;;;;;;4978678;28;20050;-88
2022/10/14 09:14:20;;;;;;;39.47;22.42;;;12.60;99.90;;;;;;4973721;28;20089;-88
2022/10/14 09:16:49;;;;;;;42.20;22.42;;;12.60;99.90;;;;;;4979804;28;20042;-87
2022/10/14 09:19:29;;;;;;;42.17;23.20;;;13.10;99.90;;;;;;4989002;28;20043;-87
2022/10/14 09:21:56;;;;;;;38.05;22.05;;;12.70;99.90;;;;;;4988350;28;20125;-88
2022/10/14 09:24:37;;;;;;;45.05;23.85;;;12.80;99.90;;;;;;4987388;28;20046;-86
2022/10/14 09:27:09;;;;;;;39.80;22.92;;;12.70;99.90;;;;;;4974108;28;20059;-84
2022/10/14 09:29:41;;;;;;;43.47;23.05;;;13.20;99.90;;;;;;4984478;28;20921;-86
2022/10/14 09:32:12;;;;;;;48.33;24.67;;;12.70;99.90;;;;;;4987120;28;20037;-84
2022/10/14 09:34:46;;;;;;;50.25;25.58;;;12.70;99.90;;;;;;4976130;28;20058;-85
2022/10/14 09:37:33;;;;;;;44.85;23.88;;;12.80;99.90;;;;;;4969158;28;20457;-85
2022/10/14 09:40:03;;;;;;;51.60;24.83;;;12.80;99.90;;;;;;4967655;28;20400;-84
2022/10/14 09:42:38;;;;;;;48.85;26.67;;;12.80;99.90;;;;;;4969905;28;20054;-84
2022/10/14 09:45:21;;;;;;;49.50;24.83;;;12.80;99.90;;;;;;4969444;28;20057;-84
2022/10/14 09:47:58;;;;;;;50.05;24.65;;;13.40;99.90;;;;;;4969590;28;20101;-85
2022/10/14 09:50:32;;;;;;;50.60;25.23;;;12.80;99.90;;;;;;4968113;28;20097;-85
2022/10/14 09:53:01;;;;;;;46.70;23.20;;;12.80;99.90;;;;;;4969276;28;20125;-85
2022/10/14 09:55:27;;;;;;;53.25;24.60;;;12.80;99.90;;;;;;4969890;28;20054;-85
2022/10/14 09:58:13;;;;;;;48.70;23.20;;;12.80;99.90;;;;;;4975973;28;20085;-85
2022/10/14 10:00:39;;;;;;;43.78;22.48;;;12.80;99.90;;;;;;4969258;28;20062;-85
2022/10/14 10:03:06;;;;;;;44.67;21.40;;;12.80;99.90;;;;;;4971900;28;20503;-84
2022/10/14 10:05:34;;;;;;;46.13;21.95;;;12.80;99.90;;;;;;4972317;28;20361;-84
2022/10/14 10:08:16;;;;;;;47.10;22.23;;;12.80;99.90;;;;;;4972784;28;20086;-85
2022/10/14 10:11:00;;;;;;;41.92;21.27;;;12.80;99.90;;;;;;4971270;28;20050;-84
2022/10/14 10:13:35;;;;;;;46.75;22.58;;;12.70;99.90;;;;;;4985471;28;20046;-83
2022/10/14 10:16:03;;;;;;;49.97;21.85;;;12.80;99.90;;;;;;4990280;28;20455;-84
2022/10/14 10:18:29;;;;;;;42.25;20.00;;;12.80;99.90;;;;;;4991883;28;20050;-84
2022/10/14 10:21:14;;;;;;;38.13;18.98;;;12.80;99.90;;;;;;4979588;28;20058;-83
2022/10/14 10:23:52;;;;;;;40.60;19.42;;;12.90;99.90;;;;;;4971626;28;20055;-84
2022/10/14 10:26:32;;;;;;;37.63;18.48;;;12.90;99.90;;;;;;4971585;28;20061;-83
2022/10/14 10:29:01;;;;;;;35.75;17.80;;;12.90;99.90;;;;;;4970919;28;20078;-84
2022/10/14 10:31:41;;;;;;;35.90;18.25;;;12.80;99.90;;;;;;4971026;28;20122;-84
2022/10/14 10:34:33;;;;;;;36.67;17.63;;;12.90;99.90;;;;;;4970478;28;20134;-83
2022/10/14 10:37:11;;;;;;;34.30;17.55;;;13.20;99.90;;;;;;4972123;28;20057;-82
2022/10/14 10:40:01;;;;;;;32.30;16.70;;;12.90;99.90;;;;;;4972286;28;20057;-83
2022/10/14 10:42:47;;;;;;;31.77;16.05;;;12.90;99.90;;;;;;4972590;28;20058;-83
2022/10/14 10:45:42;;;;;;;34.00;17.63;;;12.90;99.90;;;;;;4954139;28;20418;-84
2022/10/14 10:48:23;;;;;;;35.42;17.38;;;12.90;99.90;;;;;;4970287;28;20408;-84
2022/10/14 10:50:56;;;;;;;34.78;17.27;;;12.90;99.90;;;;;;4955800;28;20069;-83
2022/10/14 10:53:43;;;;;;;33.15;17.52;;;13.00;99.90;;;;;;4983146;28;20483;-86
2022/10/14 10:56:38;;;;;;;33.92;17.85;;;13.00;99.90;;;;;;4958152;28;20757;-86
2022/10/14 10:59:29;;;;;;;32.40;16.35;;;13.00;99.90;;;;;;4982790;28;20066;-86
2022/10/14 11:02:34;;;;;;;38.13;16.90;;;13.00;99.90;;;;;;4979261;28;20054;-85
2022/10/14 11:05:16;;;;;;;31.88;15.68;;;13.00;99.90;;;;;;4974367;28;20046;-84
2022/10/14 11:14:40;;;;;;;31.42;14.85;;;13.10;99.90;;;;;;4975524;28;20043;-83
2022/10/14 11:17:14;;;;;;;29.52;16.05;;;13.10;99.90;;;;;;4976077;28;20668;-86
2022/10/14 11:19:56;;;;;;;36.83;17.38;;;13.10;99.90;;;;;;4987691;28;20149;-84
2022/10/14 11:22:41;;;;;;;32.13;16.85;;;13.20;99.90;;;;;;4983678;28;20046;-84
2022/10/14 11:25:28;;;;;;;39.28;17.60;;;13.20;99.90;;;;;;4983833;28;20050;-84
2022/10/14 11:28:08;;;;;;;36.85;18.35;;;13.30;99.90;;;;;;4989161;28;20050;-87
2022/10/14 11:30:48;;;;;;;40.45;19.80;;;13.30;99.90;;;;;;4985772;28;20049;-87
2022/10/14 11:33:53;;;;;;;39.88;20.27;;;13.30;99.90;;;;;;4987033;28;20046;-86
2022/10/14 11:36:36;;;;;;;44.00;21.20;;;13.30;99.90;;;;;;4983766;28;20054;-86
2022/10/14 11:39:23;;;;;;;41.72;21.17;;;13.30;99.90;;;;;;4964197;28;20125;-85
2022/10/14 11:42:12;;;;;;;60.08;24.23;;;13.30;99.90;;;;;;4996866;28;20524;-84
2022/10/14 11:44:42;;;;;;;54.60;24.75;;;13.30;99.90;;;;;;4969869;28;20114;-84
2022/10/14 11:47:30;;;;;;;55.95;25.77;;;13.40;99.90;;;;;;4973722;28;20105;-84
2022/10/14 11:50:02;;;;;;;57.33;26.55;;;13.50;99.90;;;;;;4955923;28;20065;-85
2022/10/14 11:52:34;;;;;;;54.90;26.13;;;13.50;99.90;;;;;;4988123;28;20050;-85
2022/10/14 11:55:08;;;;;;;64.00;28.65;;;13.50;99.90;;;;;;4988670;28;20492;-84
2022/10/14 11:57:42;;;;;;;63.67;27.55;;;13.90;99.90;;;;;;4988895;28;20035;-85
2022/10/14 12:00:27;;;;;;;66.25;28.77;;;13.60;99.90;;;;;;4989691;28;20145;-85
2022/10/14 12:02:57;;;;;;;55.75;26.75;;;13.60;99.90;;;;;;4970369;28;20059;-84
2022/10/14 12:05:39;;;;;;;59.15;28.63;;;13.60;99.90;;;;;;4953245;28;20070;-85
2022/10/14 12:08:08;;;;;;;;;;;13.60;99.90;;;;;;4953957;28;20065;-84
2022/10/14 12:10:46;;;;;;;61.33;28.42;;;13.70;99.90;;;;;;4970224;28;19925;-85
2022/10/14 12:13:19;;;;;;;54.88;27.23;;;13.70;99.90;;;;;;4957960;28;20054;-84
2022/10/14 12:15:50;;;;;;;59.45;28.33;;;13.80;99.90;;;;;;4969519;28;20477;-83
2022/10/14 12:18:18;;;;;;;55.97;27.05;;;13.80;99.90;;;;;;4965475;28;20046;-83
2022/10/14 12:21:05;;;;;;;69.90;28.38;;;13.80;99.90;;;;;;4969206;28;20054;-85
2022/10/14 12:23:33;;;;;;;58.85;28.60;;;13.90;99.90;;;;;;4969907;28;20117;-83
2022/10/14 12:26:12;;;;;;;61.03;28.35;;;14.00;99.90;;;;;;4986643;28;20063;-83
2022/10/14 12:28:39;;;;;;;57.80;29.08;;;14.00;99.90;;;;;;5000714;28;20085;-83
2022/10/14 12:31:20;;;;;;;57.35;27.48;;;13.10;99.90;;;;;;4952733;28;20477;-84
2022/10/14 12:34:12;;;;;;;52.92;28.05;;;14.00;99.90;;;;;;4981207;28;20061;-83
2022/10/14 12:36:39;;;;;;;51.22;26.25;;;14.10;99.90;;;;;;4988463;28;20084;-83
2022/10/14 12:39:17;;;;;;;47.15;25.15;;;14.60;99.90;;;;;;4988615;28;20509;-83
2022/10/14 12:41:58;;;;;;;41.72;23.58;;;14.20;99.90;;;;;;4972181;28;20061;-83
2022/10/14 12:44:34;;;;;;;44.30;24.77;;;14.20;99.90;;;;;;4988380;28;20085;-83
2022/10/14 12:46:59;;;;;;;54.13;28.95;;;14.30;99.90;;;;;;4986029;28;20108;-82
2022/10/14 12:49:32;;;;;;;35.63;23.40;;;14.30;99.90;;;;;;4987328;28;20046;-83
2022/10/14 12:52:01;;;;;;;33.30;22.00;;;13.70;99.90;;;;;;4987858;28;20038;-83